Flight Track Log - Related Links

Times and Time Zones

All times are in EST time to prevent confusion due to time zone crossing. See the SLQ301 flight status page for this flight to view local times or setup timezone preferences in your user account.

Time Position Orientation Groundspeed Altitude Reporting Facility
EST Latitude Longitude Course Direction KTS MPH feet Rate Location/Type
Tue 06:08:49 AM 46.1980 -62.2530 284° West  Level FlightAware Approximate
Tue 06:10:23 AM 46.3333 -63.0833 90° East 90 104 2,100  Level Moncton Center
Tue 06:11:23 AM 46.3333 -63.0333 90° East 100 115 3,000 900 Climbing Moncton Center
Tue 06:12:23 AM 46.3333 -63.0167 90° East 110 127 3,900 900 Climbing Moncton Center
Tue 06:13:23 AM 46.3333 -62.9667 90° East 120 138 4,800 900 Climbing Moncton Center
Tue 06:14:23 AM 46.3333 -62.9167 90° East 120 138 5,700 900 Climbing Moncton Center
Tue 06:15:23 AM 46.3333 -62.8500 116° Southeast 140 161 6,600 650 Climbing Moncton Center
Tue 06:16:23 AM 46.3167 -62.8000 90° East 150 173 7,000 200 Climbing Moncton Center
Tue 06:17:23 AM 46.3167 -62.7333 90° East 170 196 7,000  Level Moncton Center
Tue 06:18:23 AM 46.3167 -62.6500 90° East 180 207 7,000  Level Moncton Center
Tue 06:19:23 AM 46.3167 -62.5833 106° East 180 207 7,000  Level Moncton Center
Tue 06:20:23 AM 46.3000 -62.5000 90° East 180 207 7,000  Level Moncton Center
Tue 06:21:23 AM 46.3000 -62.4333 90° East 180 207 7,000  Level Moncton Center
Tue 06:22:23 AM 46.3000 -62.3667 106° East 180 207 7,000  Level Moncton Center
Tue 06:23:23 AM 46.2833 -62.2833 90° East 180 207 7,000  Level Moncton Center
Tue 06:24:23 AM 46.2833 -62.2167 90° East 180 207 7,000  Level Moncton Center
Tue 06:25:23 AM 46.2833 -62.1667 90° East 170 196 7,000  Level Moncton Center
Tue 06:26:23 AM 46.2833 -62.1000 104° East 170 196 7,000  Level Moncton Center
Tue 06:27:23 AM 46.2667 -62.0000 90° East 190 219 7,000  Level Moncton Center
Tue 06:28:23 AM 46.2667 -61.9500 90° East 180 207 7,000  Level Moncton Center
Tue 06:29:23 AM 46.2667 -61.8833 90° East 180 207 7,000  Level Moncton Center
Tue 06:30:23 AM 46.2667 -61.8000 90° East 180 207 7,000  Level Moncton Center
Tue 06:31:23 AM 46.2667 -61.7333 90° East 170 196 7,000  Level Moncton Center
Tue 06:32:23 AM 46.2667 -61.6667 106° East 170 196 7,000  Level Moncton Center
Tue 06:33:23 AM 46.2500 -61.5833 110° East 170 196 7,000  Level Moncton Center
Tue 06:34:23 AM 46.2333 -61.5167 90° East 170 196 7,000 200 Level Moncton Center
Tue 06:35:23 AM 46.2333 -61.4667 110° East 160 184 7,400 450 Climbing Moncton Center
Tue 06:36:23 AM 46.2167 -61.4000 110° East 160 184 7,900 400 Climbing Moncton Center
Tue 06:37:23 AM 46.2000 -61.3333 90° East 160 184 8,200 150 Climbing Moncton Center
Tue 06:38:23 AM 46.2000 -61.2833 106° East 170 196 8,200  Level Moncton Center
Tue 06:39:23 AM 46.1833 -61.2000 90° East 170 196 8,200  Level Moncton Center
Tue 06:40:23 AM 46.1833 -61.1333 110° East 170 196 8,200  Level Moncton Center
Tue 06:41:23 AM 46.1667 -61.0667 90° East 170 196 8,200 -150 Level Moncton Center
Tue 06:42:23 AM 46.1667 -60.9833 126° Southeast 180 207 7,900 -400 Descending Moncton Center
Tue 06:43:23 AM 46.1333 -60.9167 90° East 180 207 7,400 -550 Descending Moncton Center
Tue 06:44:23 AM 46.1333 -60.8500 110° East 190 219 6,800 -600 Descending Moncton Center
Tue 06:45:23 AM 46.1167 -60.7833 90° East 190 219 6,200 -600 Descending Moncton Center
Tue 06:46:23 AM 46.1167 -60.7000 110° East 180 207 5,600 -650 Descending Moncton Center
Tue 06:47:23 AM 46.1000 -60.6333 90° East 180 207 4,900 -650 Descending Moncton Center
Tue 06:48:23 AM 46.1000 -60.5667 116° Southeast 170 196 4,300 -650 Descending Moncton Center
Tue 06:49:23 AM 46.0833 -60.5167 106° East 160 184 3,600 -550 Descending Moncton Center
Tue 06:50:23 AM 46.0667 -60.4333 90° East 160 184 3,200 -450 Descending Moncton Center
Tue 06:51:23 AM 46.0667 -60.4000 106° East 160 184 2,700 -350 Descending Moncton Center
Tue 06:52:23 AM 46.0500 -60.3167 90° East 150 173 2,500 -100 Descending Moncton Center
Tue 06:53:23 AM 46.0500 -60.2667 126° Southeast 140 161 2,500 -150 Level Moncton Center
Tue 06:54:23 AM 46.0333 -60.2333 64° Northeast 140 161 2,200 -200 Descending Moncton Center
Tue 06:55:23 AM 46.0500 -60.1833 64° Northeast 150 173 2,100  Descending Moncton Center
Tue 06:56:23 AM 46.0667 -60.1333 35° Northeast 150 173 2,200 -200 Climbing Moncton Center
Tue 06:57:23 AM 46.1000 -60.1000 46° Northeast 140 161 1,700 -700 Descending Moncton Center
Tue 06:58:23 AM 46.1333 -60.0500 54° Northeast 140 161 800 -700 Descending Moncton Center
Tue 06:59:23 AM 46.1500 -60.0167 54° Northeast 130 150 300 -500 Descending Moncton Center

Login

Don't have an account? Register now (free) for customized features, flight alerts, and more!